Castellon, Spain

2:25 PM CEST on July 24, 2014 (GMT +0200)
ICOMUNID116 Elev 154 ft | 39.94 °N, 0.10 °W | Change Station

Current weather conditions updated 3 minutes ago

Partly Cloudy
Partly Cloudy
84.6 °F
Feels Like 85 °F
N
3.0
Wind Variable Wind from ENE
Gusts 8.0 mph

Today is forecast to be Much Warmer than yesterday.

Today
High -- | Low -- °F
--% Chance of Precip.
Yesterday
High -- | Low -- °F
Precip. -- in
6:51 AM 9:21 PM
Waning Crescent, 5% visible
Pressure 29.86 in
Visibility 6.2 miles
Clouds Few 3000 ft
Heat Index 85 °F
Dew Point 61 °F
Humidity 45%
Rainfall 0.00 in
Snow Depth Not available.
UV 12 out of 12
Pollen Not available.
Air Quality Not available.
Flu Activity Not available.
METAR LEVC 241200Z 08008KT 030V120 9999 FEW030 29/19 Q1011 NOSIG

More Conditions Fewer Conditions

Pressure 29.86 in
Visibility 6.2 miles
Clouds Few 3000 ft
Heat Index 85 °F
Dew Point 61 °F
Humidity 45%
Rainfall 0.00 in
Snow Depth Not available.
UV 12 out of 12
Pollen Not available.
Air Quality Not available.
Flu Activity Not available.
METAR LEVC 241200Z 08008KT 030V120 9999 FEW030 29/19 Q1011 NOSIG

More Conditions Fewer Conditions

10-Day Weather Forecast

Almanac

Astronomy

Jul. 24, 2014 Rise Set
Actual Time 6:51 AM CEST 9:21 PM CEST
Civil Twilight 6:20 AM CEST 9:52 PM CEST
Nautical Twilight 5:41 AM CEST 10:31 PM CEST
Astronomical Twilight 4:58 AM CEST 11:13 PM CEST
Moon 4:46 AM CEST 7:25 PM CEST
Length Of Visible Light 15h 32m
Length of Day
14h 30m
Tomorrow will be 1m 43s shorter.
Waning Crescent, 5% of the Moon is Illuminated
Today
Waning Crescent
Jul 26
New
Aug 3
First Quarter
Aug 10
Full
Aug 17
Last Quarter

Yesterday's Extremes

Country Highs Country Lows

Community

WunderPhotos

Upload Photos

1,736,988 photos uploaded!

Nearby

Snow Depth

Not available.

Earthquake Activity

City Distance Mag. Time & Date
No recent earthquake activity has been reported nearby.
Minimum magnitude displayed is 2.5.

Coastal Water Temperatures

Place Temperature
No Stations Reporting

Nearby Weather Stations

Station Location Temp. Heat Index Dew Point Humidity Wind Precip. Elev Updated Type
Vila-real 84.6 °F 85 °F 61 °F 45% ENE  at  3.0 mph 0.00 in / hr 154 ft 2:22 PM CEST Normal
La Vall d Uixo, La Vall dUixo 82.3 °F 84 °F 66 °F 57% East  at  2.0 mph 0.00 in / hr 427 ft 2:20 PM CEST Normal

Show More Stations Show Fewer Stations